Time;durP1;ratioP1;P1;durP2;ratioP2;P2;SDS_P1;SDS_P2;PMS_P1;PMS_P2;Temp;Humidity;BMP_temperature;BMP_pressure;BME280_temperature;BME280_humidity;BME280_pressure;Samples;Min_cycle;Max_cycle;Signal;HPM_P1;HPM_P2
2024/04/07 00:01:44;;;;;;;4.60;1.90;;;14.60;99.90;;;15.54;100.00;97735.00;4999702;28;20456;-77
2024/04/07 00:04:12;;;;;;;2.90;1.20;;;14.60;99.90;;;15.47;100.00;97724.53;5001591;28;20488;-77
2024/04/07 00:06:38;;;;;;;3.67;1.50;;;14.50;99.90;;;15.39;100.00;97718.75;5002707;28;20836;-78
2024/04/07 00:09:06;;;;;;;5.30;1.63;;;14.60;99.90;;;15.39;100.00;97721.41;5003080;28;20491;-77
2024/04/07 00:11:32;;;;;;;1.40;1.10;;;14.50;99.90;;;15.37;100.00;97726.09;5003757;28;20467;-77
2024/04/07 00:14:00;;;;;;;8.00;1.77;;;14.50;99.90;;;15.32;100.00;97723.31;5004658;28;20936;-77
2024/04/07 00:16:27;;;;;;;3.23;1.40;;;14.40;99.90;;;15.26;100.00;97717.13;4998547;28;20470;-77
2024/04/07 00:18:55;;;;;;;3.00;1.33;;;14.50;99.90;;;15.28;100.00;97728.25;5004193;28;20484;-78
2024/04/07 00:21:22;;;;;;;1.80;1.30;;;14.40;99.90;;;15.32;100.00;97724.13;4998908;28;20474;-78
2024/04/07 00:23:49;;;;;;;5.23;1.50;;;14.40;99.90;;;15.31;100.00;97725.16;5018000;28;20460;-78
2024/04/07 00:26:16;;;;;;;2.80;1.30;;;14.40;99.90;;;15.28;100.00;97722.16;5002026;28;20462;-78
2024/04/07 00:28:44;;;;;;;7.93;1.53;;;14.30;99.90;;;15.24;100.00;97721.03;4999935;28;20547;-77
2024/04/07 00:31:10;;;;;;;2.00;1.70;;;14.20;99.90;;;15.22;100.00;97717.78;5016215;28;20464;-77
2024/04/07 00:33:39;;;;;;;3.00;1.10;;;14.20;99.90;;;15.18;100.00;97733.25;4999371;28;20478;-77
2024/04/07 00:36:06;;;;;;;2.77;1.30;;;14.20;99.90;;;15.12;100.00;97728.88;4999977;28;20488;-77
2024/04/07 00:38:34;;;;;;;4.10;1.40;;;14.20;99.90;;;15.13;100.00;97734.97;5000364;28;20460;-77
2024/04/07 00:41:01;;;;;;;5.53;1.30;;;14.20;99.90;;;15.01;100.00;97737.53;4999960;28;20455;-78
2024/04/07 00:43:29;;;;;;;14.23;1.87;;;14.10;99.90;;;15.00;100.00;97741.19;4999847;28;20487;-77
2024/04/07 00:45:58;;;;;;;8.13;1.33;;;14.10;99.90;;;15.05;100.00;97743.97;4999127;28;20575;-78
2024/04/07 00:48:26;;;;;;;2.17;1.50;;;14.10;99.90;;;15.03;100.00;97748.63;5014659;28;20470;-78
2024/04/07 00:50:55;;;;;;;1.80;1.20;;;14.10;99.90;;;14.96;100.00;97755.84;5002180;28;20499;-78
2024/04/07 00:53:23;;;;;;;1.80;1.20;;;14.00;99.90;;;14.99;100.00;97758.03;5019108;28;20463;-78
2024/04/07 00:55:50;;;;;;;3.13;1.50;;;14.00;99.90;;;14.85;100.00;97748.69;5004084;28;20460;-78
2024/04/07 00:58:19;;;;;;;3.20;1.63;;;13.80;99.90;;;14.68;100.00;97751.13;4998567;28;20488;-77
2024/04/07 01:00:46;;;;;;;1.83;1.33;;;13.70;99.90;;;14.77;100.00;97751.59;5004787;28;20458;-77
2024/04/07 01:03:16;;;;;;;2.30;1.40;;;13.80;99.90;;;14.70;100.00;97750.88;5003197;28;20852;-77
2024/04/07 01:05:44;;;;;;;2.23;1.30;;;13.70;99.90;;;14.70;100.00;97750.88;4998697;28;20486;-77
2024/04/07 01:08:16;;;;;;;11.90;1.60;;;13.70;99.90;;;14.70;100.00;97745.63;5003242;28;20467;-76
2024/04/07 01:10:43;;;;;;;2.33;1.30;;;13.70;99.90;;;14.74;100.00;97749.41;5001907;28;20507;-78
2024/04/07 01:13:12;;;;;;;2.77;1.37;;;13.70;99.90;;;14.63;100.00;97750.97;5018032;28;20480;-77
2024/04/07 01:15:38;;;;;;;1.90;1.30;;;13.60;99.90;;;14.67;100.00;97748.69;4999482;28;20463;-77
2024/04/07 01:18:06;;;;;;;1.77;1.20;;;13.70;99.90;;;14.68;100.00;97742.41;5003748;28;20972;-78
2024/04/07 01:20:34;;;;;;;2.30;1.33;;;13.70;99.90;;;14.66;100.00;97736.53;5001432;28;20466;-78
2024/04/07 01:23:02;;;;;;;1.80;1.03;;;13.70;99.90;;;14.68;100.00;97732.69;5003896;28;20479;-77
2024/04/07 01:25:30;;;;;;;5.43;1.43;;;13.80;99.90;;;14.65;100.00;97734.97;5007996;28;20494;-77
2024/04/07 01:28:00;;;;;;;2.67;1.40;;;13.70;99.90;;;14.62;100.00;97749.34;5001179;28;20457;-77
2024/04/07 01:30:28;;;;;;;6.70;1.67;;;13.60;99.90;;;14.52;100.00;97743.78;5007179;28;20506;-78
2024/04/07 01:32:55;;;;;;;6.33;1.50;;;13.50;99.90;;;14.57;100.00;97739.50;5020696;28;20485;-78
2024/04/07 01:35:22;;;;;;;11.73;1.60;;;13.60;99.90;;;14.61;100.00;97747.75;5018877;28;20470;-78
2024/04/07 01:37:50;;;;;;;3.40;1.30;;;13.60;99.90;;;14.59;100.00;97745.31;5002871;28;20486;-78
2024/04/07 01:40:16;;;;;;;9.23;1.50;;;13.60;99.90;;;14.53;100.00;97748.84;5007161;28;20985;-77
2024/04/07 01:42:45;;;;;;;6.30;1.80;;;13.60;99.90;;;14.49;100.00;97754.75;5004008;28;20471;-78
2024/04/07 01:45:12;;;;;;;1.93;1.40;;;13.50;99.90;;;14.51;100.00;97758.75;5018026;28;20474;-78
2024/04/07 01:47:39;;;;;;;8.57;1.43;;;13.50;99.90;;;14.48;100.00;97769.72;5000598;28;21068;-78
2024/04/07 01:50:07;;;;;;;10.13;1.70;;;13.60;99.90;;;14.49;100.00;97771.34;5003102;28;20493;-78
2024/04/07 01:52:34;;;;;;;2.30;1.30;;;13.50;99.90;;;14.47;100.00;97773.38;5000886;28;20485;-78
2024/04/07 01:55:01;;;;;;;6.23;1.93;;;13.50;99.90;;;14.50;100.00;97775.59;5000849;28;20475;-78
2024/04/07 01:57:28;;;;;;;5.93;1.33;;;13.50;99.90;;;14.52;100.00;97781.44;5007160;28;20455;-77
2024/04/07 01:59:56;;;;;;;8.43;1.63;;;13.50;99.90;;;14.48;100.00;97785.53;5002659;28;20483;-78
2024/04/07 02:02:24;;;;;;;3.53;1.40;;;13.40;99.90;;;14.35;100.00;97775.13;5001828;28;20471;-78
2024/04/07 02:04:50;;;;;;;3.63;1.60;;;13.30;99.90;;;14.38;100.00;97773.88;5005393;28;20475;-77
2024/04/07 02:07:18;;;;;;;4.90;1.40;;;13.30;99.90;;;14.37;100.00;97778.34;5000687;28;20479;-78
2024/04/07 02:09:48;;;;;;;7.90;1.43;;;13.30;99.90;;;14.34;100.00;97783.22;5003743;28;20503;-78
2024/04/07 02:12:15;;;;;;;5.17;1.70;;;13.30;99.90;;;14.31;100.00;97776.56;5003706;28;20480;-78
2024/04/07 02:14:42;;;;;;;3.97;1.37;;;13.30;99.90;;;14.38;100.00;97779.16;5002702;28;20457;-77
2024/04/07 02:17:12;;;;;;;3.40;1.60;;;13.40;99.90;;;14.25;100.00;97787.94;5006129;28;20470;-78
2024/04/07 02:19:39;;;;;;;4.47;1.60;;;13.20;99.90;;;14.29;100.00;97775.16;5005091;28;20816;-78
2024/04/07 02:22:07;;;;;;;4.50;1.17;;;13.30;99.90;;;14.22;100.00;97785.75;5002469;28;20468;-77
2024/04/07 02:24:33;;;;;;;3.87;1.43;;;13.20;99.90;;;14.28;100.00;97784.88;5021057;28;20470;-77
2024/04/07 02:27:01;;;;;;;6.07;1.50;;;13.30;99.90;;;14.23;100.00;97787.34;5003488;28;20459;-78
2024/04/07 02:29:28;;;;;;;6.17;1.70;;;13.30;99.90;;;14.19;100.00;97791.44;5004947;28;20479;-77
2024/04/07 02:31:55;;;;;;;5.80;1.40;;;13.20;99.90;;;14.14;100.00;97793.91;5003595;28;20915;-78
2024/04/07 02:34:23;;;;;;;3.00;1.30;;;13.10;99.90;;;14.13;100.00;97799.41;5021008;28;20475;-77
2024/04/07 02:36:50;;;;;;;2.10;1.30;;;13.10;99.90;;;14.08;100.00;97792.97;5001914;28;20474;-78
2024/04/07 02:39:17;;;;;;;2.97;1.50;;;13.00;99.90;;;14.11;100.00;97789.09;5018488;28;20478;-77
2024/04/07 02:41:45;;;;;;;4.23;1.50;;;13.10;99.90;;;14.02;100.00;97788.53;5001115;28;20482;-78
2024/04/07 02:44:12;;;;;;;6.23;1.40;;;13.00;99.90;;;14.04;100.00;97793.59;5004498;28;20974;-78
2024/04/07 02:49:26;;;;;;;10.60;1.73;;;13.10;99.90;;;14.07;100.00;97796.59;5000508;28;20494;-78
2024/04/07 02:51:53;;;;;;;6.63;1.73;;;13.10;99.90;;;14.10;100.00;97814.56;5002864;28;20470;-78
2024/04/07 02:54:21;;;;;;;10.50;2.13;;;13.20;99.90;;;14.03;100.00;97813.00;5000491;28;20472;-77
2024/04/07 02:56:47;;;;;;;6.47;1.50;;;13.10;99.90;;;14.07;100.00;97808.94;5005607;28;20490;-77
2024/04/07 02:59:15;;;;;;;4.10;1.53;;;13.20;99.90;;;14.08;100.00;97805.28;5004465;28;20502;-78
2024/04/07 03:01:42;;;;;;;10.60;1.83;;;13.20;99.90;;;14.03;100.00;97802.50;4999365;28;20481;-78
2024/04/07 03:04:09;;;;;;;7.23;1.30;;;13.10;99.90;;;14.09;100.00;97801.66;5002222;28;20958;-77
2024/04/07 03:06:38;;;;;;;5.70;1.47;;;13.10;99.90;;;14.04;100.00;97812.81;5005435;28;21045;-81
2024/04/07 03:09:05;;;;;;;16.33;7.90;;;13.10;99.90;;;14.06;100.00;97807.31;4999344;28;20477;-78
2024/04/07 03:11:32;;;;;;;7.43;2.83;;;13.20;99.90;;;14.03;100.00;97815.63;4997149;28;20485;-78
2024/04/07 03:13:59;;;;;;;2.77;1.73;;;13.10;99.90;;;14.00;100.00;97811.63;4998765;28;20470;-78
2024/04/07 03:16:26;;;;;;;3.27;1.43;;;13.10;99.90;;;14.03;100.00;97823.53;4998425;28;20465;-77
2024/04/07 03:18:53;;;;;;;6.50;1.73;;;13.10;99.90;;;13.98;100.00;97826.81;5012524;28;20489;-78
2024/04/07 03:21:20;;;;;;;3.03;1.70;;;13.00;99.90;;;14.03;100.00;97839.31;5000988;28;20473;-80
2024/04/07 03:23:48;;;;;;;7.13;2.90;;;13.10;99.90;;;13.96;100.00;97847.25;5001228;28;21014;-78
2024/04/07 03:26:15;;;;;;;6.20;1.60;;;13.00;99.90;;;13.94;100.00;97840.59;5000493;28;20872;-78
2024/04/07 03:28:42;;;;;;;5.77;1.43;;;13.00;99.90;;;14.00;100.00;97834.47;4996123;28;20487;-78
2024/04/07 03:31:10;;;;;;;4.80;1.47;;;13.10;99.90;;;13.92;100.00;97837.34;4999832;28;20594;-77
2024/04/07 03:33:38;;;;;;;6.55;1.63;;;13.00;99.90;;;13.95;100.00;97844.84;5002751;28;20458;-77
2024/04/07 03:36:07;;;;;;;2.50;1.27;;;13.00;99.90;;;13.99;100.00;97851.25;4995654;28;20207;-79
2024/04/07 03:38:35;;;;;;;10.97;2.50;;;13.10;99.90;;;13.98;100.00;97868.06;5012786;28;21056;-90
2024/04/07 03:41:05;;;;;;;10.00;2.60;;;13.10;99.90;;;13.91;100.00;97877.81;5001881;28;20511;-79
2024/04/07 03:43:32;;;;;;;5.37;2.00;;;13.00;99.90;;;13.93;100.00;97873.16;5001896;28;20492;-80
2024/04/07 03:46:00;;;;;;;3.17;1.67;;;13.00;99.90;;;13.90;100.00;97863.88;4999270;28;20989;-79
2024/04/07 03:48:28;;;;;;;4.10;1.43;;;13.00;99.90;;;13.93;100.00;97879.22;4998899;28;21113;-78
2024/04/07 03:50:56;;;;;;;9.77;1.63;;;13.00;99.90;;;13.83;100.00;97886.75;5001760;28;20539;-79
2024/04/07 03:53:26;;;;;;;3.97;1.87;;;12.90;99.90;;;13.90;100.00;97899.88;5013082;28;20487;-79
2024/04/07 03:55:53;;;;;;;5.50;1.83;;;12.90;99.90;;;13.95;100.00;97905.31;5014450;28;20956;-79
2024/04/07 03:58:21;;;;;;;3.73;1.47;;;13.00;99.90;;;13.95;100.00;97915.81;5003393;28;20935;-79
2024/04/07 04:00:49;;;;;;;3.00;1.93;;;13.00;99.90;;;13.95;100.00;97921.09;5002172;28;20470;-79
2024/04/07 04:03:15;;;;;;;7.00;1.40;;;13.10;99.90;;;13.96;100.00;97920.03;5003500;28;20451;-79
2024/04/07 04:05:43;;;;;;;6.50;2.27;;;13.10;99.90;;;13.88;100.00;97930.81;5003296;28;20471;-79
2024/04/07 04:08:09;;;;;;;10.43;1.60;;;13.00;99.90;;;13.80;100.00;97923.19;5001800;28;20464;-79
2024/04/07 04:10:40;;;;;;;5.27;2.00;;;12.80;99.90;;;13.80;100.00;97933.69;4999421;28;20499;-79
2024/04/07 04:13:06;;;;;;;2.70;1.50;;;13.00;99.90;;;13.80;100.00;97924.00;5001633;28;21043;-79
2024/04/07 04:15:38;;;;;;;10.33;3.93;;;12.90;99.90;;;13.71;100.00;97927.84;4997484;28;20497;-83
2024/04/07 04:18:06;;;;;;;6.47;3.08;;;12.80;99.90;;;13.75;100.00;97925.63;4999057;28;20469;-80
2024/04/07 04:20:33;;;;;;;5.63;1.47;;;12.90;99.90;;;13.75;100.00;97933.50;4993760;28;20208;-79
2024/04/07 04:23:01;;;;;;;17.73;1.90;;;12.80;99.90;;;13.74;100.00;97940.59;4996858;28;20529;-79
2024/04/07 04:25:27;;;;;;;10.20;1.80;;;12.80;99.90;;;13.76;100.00;97943.00;4998164;28;20474;-79
2024/04/07 04:27:54;;;;;;;3.77;1.73;;;12.80;99.90;;;13.73;100.00;97940.78;5013179;28;20470;-79
2024/04/07 04:30:21;;;;;;;3.03;1.40;;;12.80;99.90;;;13.74;100.00;97947.69;4997053;28;20495;-79
2024/04/07 04:32:50;;;;;;;5.83;2.10;;;12.80;99.90;;;13.76;100.00;97945.63;4993878;28;20479;-78
2024/04/07 04:35:16;;;;;;;7.70;2.60;;;12.80;99.90;;;13.74;100.00;97952.94;4995944;28;20845;-79
2024/04/07 04:37:44;;;;;;;4.03;1.43;;;12.80;99.90;;;13.70;100.00;97954.34;4995607;28;20517;-85
2024/04/07 04:40:11;;;;;;;5.87;3.20;;;12.80;99.90;;;13.67;100.00;97939.00;5015313;28;20485;-80
2024/04/07 04:42:38;;;;;;;2.70;1.80;;;12.80;99.90;;;13.65;100.00;97925.25;4998190;28;20480;-80
2024/04/07 04:45:06;;;;;;;6.10;1.70;;;12.80;99.90;;;13.59;100.00;97953.19;5015767;28;20546;-80
2024/04/07 04:47:34;;;;;;;9.30;1.93;;;12.80;99.90;;;13.52;100.00;97957.66;5001938;28;20487;-80
2024/04/07 04:50:02;;;;;;;3.13;1.43;;;12.70;99.90;;;13.60;100.00;97962.69;5001811;28;21005;-80
2024/04/07 04:52:30;;;;;;;8.00;1.70;;;12.70;99.90;;;13.52;100.00;97978.69;4998744;28;20475;-79
2024/04/07 04:54:58;;;;;;;8.33;1.57;;;12.70;99.90;;;13.54;100.00;97976.63;5014527;28;20477;-79
2024/04/07 04:57:25;;;;;;;13.97;1.93;;;12.60;99.90;;;13.56;100.00;97983.31;5002305;28;20481;-79
2024/04/07 04:59:52;;;;;;;6.20;1.80;;;12.60;99.90;;;13.50;100.00;97997.25;5017582;28;20480;-80
2024/04/07 05:02:20;;;;;;;4.03;1.50;;;12.60;99.90;;;13.50;100.00;98002.53;5016635;28;20474;-80
2024/04/07 05:04:49;;;;;;;9.70;1.53;;;12.70;99.90;;;13.52;100.00;98000.50;5001169;28;20476;-80
2024/04/07 05:07:18;;;;;;;7.43;1.70;;;12.60;99.90;;;13.58;100.00;98010.19;4997288;28;20723;-80
2024/04/07 05:09:46;;;;;;;6.20;1.70;;;12.70;99.90;;;13.56;100.00;98001.72;5000749;28;21081;-80
2024/04/07 05:12:14;;;;;;;4.53;1.40;;;12.70;99.90;;;13.55;100.00;98010.59;4999394;28;20467;-80
2024/04/07 05:14:41;;;;;;;6.47;1.63;;;12.70;99.90;;;13.51;100.00;98001.50;5015400;28;20473;-79
2024/04/07 05:17:08;;;;;;;2.27;1.57;;;12.60;99.90;;;13.49;100.00;98011.44;5003629;28;20465;-80
2024/04/07 05:19:35;;;;;;;2.07;1.63;;;12.50;99.90;;;13.50;100.00;98028.78;5003123;28;20475;-80
2024/04/07 05:22:03;;;;;;;3.60;1.70;;;12.50;99.90;;;13.49;100.00;98031.63;5001953;28;20475;-80
2024/04/07 05:24:32;;;;;;;2.30;1.43;;;12.60;99.90;;;13.52;100.00;98037.28;5014682;28;20845;-80
2024/04/07 05:27:03;;;;;;;3.40;1.60;;;12.60;99.90;;;13.56;100.00;98043.75;4998402;28;20971;-80
2024/04/07 05:29:29;;;;;;;9.20;1.60;;;12.60;99.90;;;13.55;100.00;98050.00;4997355;28;20878;-80
2024/04/07 05:31:57;;;;;;;3.93;1.50;;;12.70;99.90;;;13.60;100.00;98059.91;4999548;28;20501;-80
2024/04/07 05:34:26;;;;;;;6.73;1.77;;;12.70;99.90;;;13.52;100.00;98058.31;4998364;28;20472;-86
2024/04/07 05:36:53;;;;;;;8.27;3.90;;;12.60;99.90;;;13.53;100.00;98070.44;4984768;28;20463;-80
2024/04/07 05:39:20;;;;;;;8.53;1.87;;;12.60;99.90;;;13.57;100.00;98063.75;4991595;28;20462;-80
2024/04/07 05:41:49;;;;;;;3.33;1.80;;;12.60;99.90;;;13.65;100.00;98072.41;4996183;28;20490;-80
2024/04/07 05:44:17;;;;;;;12.07;2.27;;;12.70;99.90;;;13.68;100.00;98082.50;4994093;28;20499;-80
2024/04/07 05:46:43;;;;;;;13.13;2.20;;;12.80;99.90;;;13.74;100.00;98079.09;4993480;28;20860;-80
2024/04/07 05:49:11;;;;;;;5.80;2.13;;;12.90;99.90;;;13.78;100.00;98085.56;5009784;28;20477;-80
2024/04/07 05:51:37;;;;;;;8.63;2.30;;;12.90;99.90;;;13.84;100.00;98079.47;5011779;28;20468;-80
2024/04/07 05:54:05;;;;;;;5.97;1.70;;;13.00;99.90;;;13.87;100.00;98079.84;5000716;28;20821;-80
2024/04/07 05:56:31;;;;;;;5.13;2.30;;;13.00;99.90;;;13.93;100.00;98070.31;5013043;28;20472;-79
2024/04/07 05:59:00;;;;;;;5.70;2.60;;;13.20;99.90;;;14.01;100.00;98068.28;5018058;28;20498;-76
2024/04/07 06:01:26;;;;;;;17.17;6.53;;;13.20;99.90;;;14.09;100.00;98089.06;5005766;28;20467;-83
2024/04/07 06:03:54;;;;;;;9.53;1.87;;;13.20;99.90;;;14.11;100.00;98084.41;4996397;28;20506;-79
2024/04/07 06:06:20;;;;;;;5.43;1.83;;;13.20;99.90;;;14.18;100.00;98079.13;5003388;28;20483;-79
2024/04/07 06:08:47;;;;;;;5.60;1.70;;;13.30;99.90;;;14.26;100.00;98086.78;4997834;28;20484;-79
2024/04/07 06:11:14;;;;;;;6.13;1.97;;;13.40;99.90;;;14.34;100.00;98094.47;4999926;28;21033;-79
2024/04/07 06:13:42;;;;;;;8.17;2.30;;;13.40;99.90;;;14.41;100.00;98105.75;5012422;28;20475;-80
2024/04/07 06:16:09;;;;;;;113.67;54.40;;;13.50;99.90;;;14.48;100.00;98103.91;4999950;28;21001;-86
2024/04/07 06:18:38;;;;;;;18.40;9.77;;;13.60;99.90;;;14.55;100.00;98117.84;5000736;28;20484;-79
2024/04/07 06:21:07;;;;;;;17.23;4.07;;;13.70;99.90;;;14.63;100.00;98113.34;5004738;28;20467;-80
2024/04/07 06:23:34;;;;;;;5.67;2.40;;;13.80;99.90;;;14.72;100.00;98119.97;5002341;28;20474;-79
2024/04/07 06:26:01;;;;;;;28.33;3.10;;;13.80;99.90;;;14.79;100.00;98113.66;4995004;28;20468;-80
2024/04/07 06:28:29;;;;;;;14.63;2.10;;;13.90;99.90;;;14.87;100.00;98108.16;4999213;28;20486;-80
2024/04/07 06:30:55;;;;;;;8.10;1.53;;;14.00;99.90;;;14.94;100.00;98132.59;4996729;28;20493;-79
2024/04/07 06:33:26;;;;;;;4.87;1.60;;;14.00;99.90;;;15.02;100.00;98134.19;5001947;28;20882;-81
2024/04/07 06:35:53;;;;;;;9.80;1.40;;;14.10;99.90;;;15.07;100.00;98129.88;4995217;28;20494;-83
2024/04/07 06:38:20;;;;;;;3.60;1.70;;;14.20;99.90;;;15.15;100.00;98120.91;5003311;28;20490;-82
2024/04/07 06:40:47;;;;;;;3.17;1.67;;;14.30;99.90;;;15.22;100.00;98113.78;5003367;28;20465;-81
2024/04/07 06:43:14;;;;;;;9.70;2.10;;;14.30;99.90;;;15.28;100.00;98118.16;5003803;28;20474;-81
2024/04/07 06:45:41;;;;;;;7.20;1.90;;;14.40;99.90;;;15.34;100.00;98117.31;5016352;28;20562;-80
2024/04/07 06:48:09;;;;;;;7.77;2.50;;;14.50;99.90;;;15.43;100.00;98115.22;4999429;28;20474;-80
2024/04/07 06:50:36;;;;;;;3.23;2.07;;;14.60;99.90;;;15.49;100.00;98112.56;5005885;28;21076;-80
2024/04/07 06:53:04;;;;;;;3.57;1.97;;;14.70;99.90;;;15.57;100.00;98122.03;4999663;28;20541;-81
2024/04/07 06:55:31;;;;;;;10.83;1.70;;;14.80;99.90;;;15.65;100.00;98118.31;5018247;28;20476;-81
2024/04/07 06:57:58;;;;;;;8.13;1.90;;;14.90;99.90;;;15.72;100.00;98114.59;5005888;28;20486;-80
2024/04/07 07:00:25;;;;;;;5.57;1.90;;;15.00;99.90;;;15.82;100.00;98119.34;5001287;28;20481;-80
2024/04/07 07:02:52;;;;;;;5.93;1.50;;;15.10;99.90;;;15.88;100.00;98121.91;5004328;28;20513;-82
2024/04/07 07:05:19;;;;;;;6.53;1.83;;;15.20;99.90;;;15.96;100.00;98123.47;5001604;28;20476;-81
2024/04/07 07:07:47;;;;;;;9.03;2.10;;;15.20;99.90;;;16.04;100.00;98112.59;5003630;28;20470;-80
2024/04/07 07:10:14;;;;;;;3.53;1.43;;;15.30;99.90;;;16.14;100.00;98125.31;5006030;28;20463;-80
2024/04/07 07:12:42;;;;;;;7.40;1.90;;;15.40;99.90;;;16.22;100.00;98131.09;5003077;28;20471;-82
2024/04/07 07:15:08;;;;;;;70.67;39.47;;;15.40;99.90;;;16.28;100.00;98132.81;5002043;28;20485;-80
2024/04/07 07:17:36;;;;;;;42.23;20.60;;;15.50;99.90;;;16.35;100.00;98141.47;5011529;28;20991;-80
2024/04/07 07:20:03;;;;;;;13.33;2.57;;;15.60;99.90;;;16.43;100.00;98146.47;4998041;28;20468;-79
2024/04/07 07:22:30;;;;;;;2.63;1.17;;;15.70;99.90;;;16.49;100.00;98148.22;4999828;28;20476;-80
2024/04/07 07:24:58;;;;;;;4.17;1.70;;;15.80;99.90;;;16.56;100.00;98142.88;4998607;28;20475;-79
2024/04/07 07:27:25;;;;;;;8.07;1.50;;;15.80;99.90;;;16.63;100.00;98158.63;4994946;28;20477;-80
2024/04/07 07:29:52;;;;;;;3.37;1.47;;;15.90;99.90;;;16.69;100.00;98145.38;5001635;28;20492;-80
2024/04/07 07:32:19;;;;;;;3.80;1.70;;;16.00;99.90;;;16.75;100.00;98152.41;4995822;28;20490;-79
2024/04/07 07:34:46;;;;;;;5.13;1.80;;;16.10;99.90;;;16.81;100.00;98164.69;4999855;28;20472;-79
2024/04/07 07:37:13;;;;;;;5.50;2.13;;;16.10;99.90;;;16.87;100.00;98163.00;5004509;28;21169;-84
2024/04/07 07:39:40;;;;;;;59.07;27.83;;;16.20;99.90;;;16.92;100.00;98165.78;4995588;28;20464;-82
2024/04/07 07:42:10;;;;;;;5.23;2.20;;;16.20;99.90;;;17.00;100.00;98170.75;4996841;28;20475;-81
2024/04/07 07:44:36;;;;;;;9.07;2.00;;;16.30;99.90;;;17.07;100.00;98177.56;5003506;28;20465;-81
2024/04/07 07:47:04;;;;;;;3.83;1.60;;;16.40;99.90;;;17.12;100.00;98184.78;4998354;28;20471;-82
2024/04/07 07:49:31;;;;;;;5.47;1.70;;;16.40;99.90;;;17.18;100.00;98188.38;4998039;28;20487;-80
2024/04/07 07:51:58;;;;;;;13.10;8.40;;;16.50;99.90;;;17.24;100.00;98180.34;4999402;28;20886;-81
2024/04/07 07:54:25;;;;;;;6.43;2.00;;;16.60;99.90;;;17.32;100.00;98172.09;5001830;28;20802;-81
2024/04/07 07:56:52;;;;;;;3.33;1.70;;;16.70;99.90;;;17.39;100.00;98180.72;5003123;28;20487;-80
2024/04/07 07:59:20;;;;;;;6.37;1.90;;;16.70;99.90;;;17.47;100.00;98179.59;5003233;28;20899;-81
2024/04/07 08:01:47;;;;;;;3.70;1.53;;;16.80;99.90;;;17.52;100.00;98183.19;5002952;28;20470;-81
2024/04/07 08:04:14;;;;;;;7.43;2.03;;;16.90;99.90;;;17.56;100.00;98199.44;5001892;28;21311;-81
2024/04/07 08:06:41;;;;;;;6.03;1.80;;;16.80;99.90;;;17.62;100.00;98203.81;5005224;28;20517;-81
2024/04/07 08:09:08;;;;;;;4.37;1.80;;;16.90;99.90;;;17.68;100.00;98210.81;5003112;28;20478;-81
2024/04/07 08:11:36;;;;;;;3.20;1.60;;;17.00;99.90;;;17.76;100.00;98212.34;4997201;28;20503;-81
2024/04/07 08:14:02;;;;;;;2.60;1.47;;;17.10;99.90;;;17.82;100.00;98211.41;5004158;28;20460;-81
2024/04/07 08:16:31;;;;;;;8.43;1.70;;;17.20;99.90;;;17.91;100.00;98218.00;5004249;28;20503;-81
2024/04/07 08:19:00;;;;;;;4.47;1.57;;;17.30;99.90;;;17.97;100.00;98230.28;5014531;28;20479;-81
2024/04/07 08:21:27;;;;;;;3.83;2.00;;;17.40;99.90;;;18.05;100.00;98235.22;4997583;28;20845;-81
2024/04/07 08:23:54;;;;;;;5.00;1.77;;;17.40;99.90;;;18.12;100.00;98235.13;4999010;28;20489;-81
2024/04/07 08:26:22;;;;;;;4.30;1.53;;;17.50;99.90;;;18.16;100.00;98226.50;4998676;28;20834;-81
2024/04/07 08:28:49;;;;;;;6.30;1.40;;;17.60;99.90;;;18.22;100.00;98238.81;4998492;28;20463;-81
2024/04/07 08:31:17;;;;;;;3.20;1.50;;;17.60;99.90;;;18.30;100.00;98241.09;4998711;28;20483;-81
2024/04/07 08:33:45;;;;;;;7.10;1.70;;;17.70;99.90;;;18.40;100.00;98233.38;4998388;28;20471;-81
2024/04/07 08:36:12;;;;;;;6.83;1.27;;;17.70;99.90;;;18.47;100.00;98243.84;4999577;28;20478;-81
2024/04/07 08:38:41;;;;;;;4.87;1.30;;;17.70;99.90;;;18.51;100.00;98243.19;5004584;28;20463;-81
2024/04/07 08:41:09;;;;;;;2.67;1.30;;;17.70;99.90;;;18.62;100.00;98243.41;5006601;28;20483;-81
2024/04/07 08:43:39;;;;;;;13.13;1.50;;;17.80;99.90;;;18.71;100.00;98242.00;5001160;28;20840;-81
2024/04/07 08:46:11;;;;;;;4.60;1.50;;;17.90;99.90;;;18.76;100.00;98234.16;5003504;28;20479;-80
2024/04/07 08:48:42;;;;;;;3.57;1.73;;;18.00;99.90;;;18.82;100.00;98233.22;4998597;28;20475;-80
2024/04/07 08:51:12;;;;;;;12.17;1.33;;;18.10;99.90;;;18.88;100.00;98227.00;4999964;28;20492;-81
2024/04/07 08:53:41;;;;;;;10.37;1.50;;;18.20;99.90;;;18.92;100.00;98233.41;5004995;28;20459;-80
2024/04/07 08:56:08;;;;;;;8.30;1.77;;;18.20;99.90;;;18.97;100.00;98233.53;4999475;28;20521;-81
2024/04/07 08:58:37;;;;;;;5.00;1.70;;;18.30;99.90;;;18.97;100.00;98236.16;5003035;28;20492;-81
2024/04/07 09:01:05;;;;;;;7.67;1.53;;;18.20;99.90;;;19.02;100.00;98238.94;4997127;28;20482;-81
2024/04/07 09:03:32;;;;;;;4.30;1.60;;;18.30;99.90;;;19.03;100.00;98240.53;5016785;28;20483;-81
2024/04/07 09:05:59;;;;;;;8.27;1.50;;;18.30;99.90;;;19.09;100.00;98234.25;5002770;28;20463;-81
2024/04/07 09:08:28;;;;;;;6.10;1.40;;;18.40;99.90;;;19.09;100.00;98232.41;5004517;28;20459;-81
2024/04/07 09:10:55;;;;;;;3.00;1.10;;;18.30;99.90;;;19.09;100.00;98234.25;5000431;28;21032;-81
2024/04/07 09:13:22;;;;;;;3.03;1.33;;;18.20;99.90;;;19.12;100.00;98238.31;5004348;28;20464;-81
2024/04/07 09:15:50;;;;;;;6.50;1.63;;;18.30;99.90;;;19.14;100.00;98246.81;5002702;28;20476;-81
2024/04/07 09:18:18;;;;;;;3.07;1.40;;;18.30;99.90;;;19.14;100.00;98238.88;4999694;28;20460;-81
2024/04/07 09:20:45;;;;;;;10.93;1.53;;;18.40;99.90;;;19.19;100.00;98242.44;5005333;28;20455;-81
2024/04/07 09:23:12;;;;;;;11.70;1.50;;;18.40;99.90;;;19.21;100.00;98236.88;5001873;28;20464;-81
2024/04/07 09:25:41;;;;;;;4.67;1.70;;;18.50;99.90;;;19.23;100.00;98235.59;5005680;28;20558;-81
2024/04/07 09:28:10;;;;;;;4.70;1.50;;;18.50;99.90;;;19.31;100.00;98234.41;5003319;28;20846;-80
2024/04/07 09:30:37;;;;;;;3.57;1.50;;;18.70;99.90;;;19.31;100.00;98232.56;5001609;28;20471;-80
2024/04/07 09:33:07;;;;;;;3.00;1.73;;;18.60;99.90;;;19.33;100.00;98235.00;5007623;28;20502;-80
2024/04/07 09:35:35;;;;;;;4.57;1.30;;;18.70;99.90;;;19.34;100.00;98253.31;5005131;28;20467;-80
2024/04/07 09:38:01;;;;;;;4.33;1.80;;;18.60;99.90;;;19.35;100.00;98239.00;5004273;28;20464;-80
2024/04/07 09:40:29;;;;;;;6.40;1.83;;;18.60;99.90;;;19.36;100.00;98239.81;5016780;28;20472;-79
2024/04/07 09:42:59;;;;;;;5.27;1.87;;;18.60;99.90;;;19.42;100.00;98237.03;5006095;28;20475;-80
2024/04/07 09:45:27;;;;;;;2.07;1.20;;;18.80;99.90;;;19.40;100.00;98247.03;4999393;28;20476;-80
2024/04/07 09:48:01;;;;;;;3.30;1.83;;;18.60;99.90;;;19.46;100.00;98248.78;5005883;28;20472;-80
2024/04/07 09:50:35;;;;;;;3.47;1.60;;;18.70;99.90;;;19.45;100.00;98244.53;5002425;28;20478;-80
2024/04/07 09:53:18;;;;;;;2.47;1.43;;;18.60;99.90;;;19.48;100.00;98241.38;5004345;28;20511;-90
2024/04/07 09:55:50;;;;;;;104.40;49.53;;;18.70;99.90;;;19.53;100.00;98238.84;4998359;28;20970;-81
2024/04/07 09:58:23;;;;;;;11.83;3.10;;;18.70;99.90;;;19.56;100.00;98232.25;5016181;28;20495;-81
2024/04/07 10:00:51;;;;;;;2.03;1.30;;;18.80;99.90;;;19.61;100.00;98237.63;5004183;28;20463;-81
2024/04/07 10:03:18;;;;;;;6.00;2.00;;;18.90;99.90;;;19.65;100.00;98227.31;5000381;28;20476;-81
2024/04/07 10:05:45;;;;;;;3.67;1.40;;;19.00;99.90;;;19.65;100.00;98229.97;4996839;28;20468;-80
2024/04/07 10:08:12;;;;;;;5.33;1.60;;;18.90;99.90;;;19.68;100.00;98221.56;5003602;28;20993;-78
2024/04/07 10:10:41;;;;;;;81.03;49.67;;;18.90;99.90;;;19.72;100.00;98223.47;5000088;28;20479;-77
2024/04/07 10:13:08;;;;;;;6.50;3.93;;;19.00;99.90;;;19.72;100.00;98220.00;5002205;28;20518;-78
2024/04/07 10:15:38;;;;;;;5.07;1.80;;;18.90;99.90;;;19.78;98.58;98221.72;5000383;28;20471;-80